Time;durP1;ratioP1;P1;durP2;ratioP2;P2;SDS_P1;SDS_P2;PMS_P1;PMS_P2;Temp;Humidity;BMP_temperature;BMP_pressure;BME280_temperature;BME280_humidity;BME280_pressure;Samples;Min_cycle;Max_cycle;Signal;HPM_P1;HPM_P2
2021/06/19 00:00:20;;;;;;;9.43;7.55;;;21.20;70.40;;;;;;5088048;28;20227;-89
2021/06/19 00:02:47;;;;;;;8.90;7.70;;;21.20;70.30;;;;;;5099689;28;20231;-89
2021/06/19 00:05:15;;;;;;;8.43;7.40;;;21.20;70.90;;;;;;5095461;28;20201;-88
2021/06/19 00:07:43;;;;;;;10.18;7.70;;;21.10;70.70;;;;;;5097729;28;20236;-89
2021/06/19 00:10:20;;;;;;;8.63;7.90;;;21.10;71.80;;;;;;5092568;28;20592;-89
2021/06/19 00:12:50;;;;;;;8.63;7.78;;;21.10;71.80;;;;;;5092235;28;20625;-90
2021/06/19 00:15:20;;;;;;;10.10;8.02;;;21.00;71.50;;;;;;5094605;28;20248;-91
2021/06/19 00:17:48;;;;;;;8.57;7.75;;;21.10;72.40;;;;;;5097311;28;20722;-91
2021/06/19 00:20:18;;;;;;;9.13;8.23;;;21.10;72.40;;;;;;5095534;28;20201;-90
2021/06/19 00:22:45;;;;;;;11.95;8.43;;;21.00;73.40;;;;;;5093982;28;20239;-91
2021/06/19 00:25:15;;;;;;;9.52;8.45;;;21.00;74.10;;;;;;5085661;28;20220;-90
2021/06/19 00:27:42;;;;;;;11.05;8.55;;;20.80;74.20;;;;;;5088187;28;20706;-91
2021/06/19 00:30:16;;;;;;;8.98;7.90;;;20.80;75.10;;;;;;5086065;28;20597;-90
2021/06/19 00:32:45;;;;;;;8.57;7.75;;;20.80;75.10;;;;;;5084245;28;20239;-90
2021/06/19 00:35:12;;;;;;;9.40;8.05;;;20.80;75.50;;;;;;5089168;28;20196;-90
2021/06/19 00:37:39;;;;;;;8.50;7.68;;;20.80;75.60;;;;;;5095533;28;20216;-91
2021/06/19 00:40:08;;;;;;;9.40;7.57;;;20.80;75.90;;;;;;5092042;28;20198;-91
2021/06/19 00:42:36;;;;;;;10.52;7.93;;;20.70;75.90;;;;;;5092369;28;20220;-91
2021/06/19 00:45:04;;;;;;;12.02;7.78;;;20.60;76.70;;;;;;5090599;28;20205;-90
2021/06/19 00:47:37;;;;;;;10.50;8.13;;;20.50;77.30;;;;;;5091380;28;20221;-90
2021/06/19 00:50:05;;;;;;;8.57;7.78;;;20.50;78.10;;;;;;5091673;28;20779;-91
2021/06/19 00:52:32;;;;;;;8.90;8.00;;;20.60;78.10;;;;;;5094838;28;20218;-90
2021/06/19 00:54:59;;;;;;;9.77;8.02;;;20.60;78.40;;;;;;5094772;28;20216;-91
2021/06/19 00:57:27;;;;;;;10.57;7.93;;;20.60;77.90;;;;;;5094477;28;20723;-90
2021/06/19 00:59:57;;;;;;;8.52;7.65;;;20.60;77.90;;;;;;5084783;28;20218;-90
2021/06/19 01:02:24;;;;;;;8.68;7.63;;;20.60;78.10;;;;;;5091830;28;20232;-90
2021/06/19 01:04:52;;;;;;;8.65;7.57;;;20.50;78.60;;;;;;5089405;28;20196;-91
2021/06/19 01:07:19;;;;;;;8.85;7.65;;;20.50;78.90;;;;;;5074404;28;20232;-91
2021/06/19 01:09:46;;;;;;;10.80;7.82;;;20.50;79.40;;;;;;5090549;28;20704;-91
2021/06/19 01:12:13;;;;;;;9.07;8.18;;;20.50;79.50;;;;;;5081893;28;20221;-91
2021/06/19 01:14:43;;;;;;;9.20;7.90;;;20.50;79.80;;;;;;5090265;28;20200;-91
2021/06/19 01:17:10;;;;;;;8.70;7.78;;;20.50;80.20;;;;;;5092577;28;20224;-91
2021/06/19 01:19:37;;;;;;;11.38;8.57;;;20.60;80.60;;;;;;5080688;28;20288;-90
2021/06/19 01:22:06;;;;;;;9.55;8.35;;;20.70;80.50;;;;;;5087635;28;20288;-90
2021/06/19 01:24:35;;;;;;;9.38;8.43;;;20.70;81.00;;;;;;5097883;28;20643;-91
2021/06/19 01:30:10;;;;;;;9.25;8.27;;;20.80;80.50;;;;;;5091151;28;20242;-91
2021/06/19 01:32:39;;;;;;;8.70;8.00;;;20.80;80.70;;;;;;5090818;28;20255;-91
2021/06/19 01:35:08;;;;;;;11.02;8.50;;;20.80;80.80;;;;;;5095129;28;20558;-91
2021/06/19 01:37:37;;;;;;;10.10;8.43;;;20.80;81.40;;;;;;5092182;28;20232;-91
2021/06/19 01:40:09;;;;;;;8.95;8.15;;;20.80;81.40;;;;;;5092268;28;20193;-91
2021/06/19 01:42:40;;;;;;;9.45;8.40;;;20.80;81.40;;;;;;5091278;28;20217;-91
2021/06/19 01:45:13;;;;;;;9.50;8.52;;;20.90;81.40;;;;;;5094874;28;20215;-91
2021/06/19 01:47:40;;;;;;;9.50;8.50;;;20.70;81.30;;;;;;5093005;28;20235;-91
2021/06/19 01:50:08;;;;;;;9.98;8.75;;;20.70;81.30;;;;;;5094264;28;20228;-91
2021/06/19 01:52:35;;;;;;;10.98;9.45;;;20.70;81.30;;;;;;5091984;28;20702;-91
2021/06/19 01:55:04;;;;;;;10.70;8.85;;;20.70;81.30;;;;;;5086018;28;20217;-91
2021/06/19 01:57:33;;;;;;;9.15;8.20;;;20.70;81.30;;;;;;5086398;28;20221;-91
2021/06/19 02:00:01;;;;;;;11.75;8.30;;;20.80;81.40;;;;;;5096070;28;20208;-91
2021/06/19 02:02:29;;;;;;;11.23;8.88;;;20.80;81.40;;;;;;5087511;28;20237;-92
2021/06/19 02:04:55;;;;;;;9.75;8.60;;;20.80;81.40;;;;;;5087567;28;20200;-90
2021/06/19 02:07:23;;;;;;;9.70;8.70;;;20.70;81.30;;;;;;5095885;28;20226;-90
2021/06/19 02:09:50;;;;;;;9.90;8.75;;;20.60;81.20;;;;;;5095318;28;20213;-91
2021/06/19 02:12:17;;;;;;;9.45;8.48;;;20.50;81.30;;;;;;5093648;28;20237;-91
2021/06/19 02:14:46;;;;;;;10.13;8.13;;;20.40;82.90;;;;;;5095661;28;20222;-91
2021/06/19 02:17:13;;;;;;;10.50;8.55;;;20.50;83.40;;;;;;5094244;28;20586;-91
2021/06/19 02:19:41;;;;;;;9.38;8.43;;;20.50;83.50;;;;;;5090909;28;20212;-90
2021/06/19 02:22:08;;;;;;;10.23;7.95;;;20.50;84.10;;;;;;5092084;28;20227;-91
2021/06/19 02:24:35;;;;;;;9.52;8.45;;;20.50;83.30;;;;;;5090909;28;20204;-91
2021/06/19 02:27:10;;;;;;;9.27;8.48;;;20.40;84.20;;;;;;5089281;28;20306;-91
2021/06/19 02:29:37;;;;;;;9.77;8.45;;;20.30;84.10;;;;;;5079964;28;20227;-90
2021/06/19 02:32:08;;;;;;;9.40;8.15;;;20.30;85.20;;;;;;5088953;28;20220;-91
2021/06/19 02:34:35;;;;;;;9.10;8.15;;;20.30;85.70;;;;;;5087347;28;20211;-91
2021/06/19 02:37:03;;;;;;;9.65;8.75;;;20.30;85.40;;;;;;5088438;28;20679;-91
2021/06/19 02:39:30;;;;;;;9.82;8.82;;;20.30;85.40;;;;;;5085172;28;20712;-89
2021/06/19 02:41:57;;;;;;;9.68;8.63;;;20.30;85.50;;;;;;5083746;28;20232;-91
2021/06/19 02:44:24;;;;;;;9.15;8.25;;;20.30;85.60;;;;;;5090297;28;20208;-91
2021/06/19 02:46:51;;;;;;;10.63;8.75;;;20.10;86.00;;;;;;5074322;28;20204;-91
2021/06/19 02:49:20;;;;;;;11.57;9.15;;;20.10;86.50;;;;;;5077843;28;20208;-91
2021/06/19 02:51:47;;;;;;;10.00;8.73;;;20.20;87.10;;;;;;5087013;28;20938;-91
2021/06/19 02:54:14;;;;;;;10.45;9.02;;;20.10;87.40;;;;;;5085385;28;20308;-91
2021/06/19 02:56:41;;;;;;;13.75;9.18;;;20.10;87.70;;;;;;5093503;28;20201;-91
2021/06/19 02:59:08;;;;;;;9.98;9.07;;;20.10;88.60;;;;;;5089915;28;20196;-91
2021/06/19 03:01:37;;;;;;;11.15;8.98;;;20.10;88.50;;;;;;5084078;28;20590;-91
2021/06/19 03:04:06;;;;;;;10.18;9.15;;;20.20;88.60;;;;;;5089469;28;20307;-91
2021/06/19 03:06:35;;;;;;;10.23;9.23;;;20.10;88.20;;;;;;5093234;28;20208;-91
2021/06/19 03:09:04;;;;;;;9.70;8.82;;;20.20;88.20;;;;;;5089271;28;20572;-90
2021/06/19 03:11:31;;;;;;;10.20;9.05;;;20.10;88.50;;;;;;5088839;28;20224;-91
2021/06/19 03:13:58;;;;;;;12.55;9.20;;;20.00;89.30;;;;;;5086111;28;20220;-91
2021/06/19 03:16:25;;;;;;;10.15;8.85;;;20.00;89.70;;;;;;5084725;28;20205;-91
2021/06/19 03:18:52;;;;;;;10.07;9.00;;;20.00;90.00;;;;;;5091774;28;20306;-91
2021/06/19 03:21:19;;;;;;;10.02;9.02;;;20.10;90.00;;;;;;5087643;28;20192;-91
2021/06/19 03:23:47;;;;;;;13.52;9.65;;;20.00;90.00;;;;;;5072812;28;20220;-91
2021/06/19 03:26:14;;;;;;;12.70;9.48;;;20.00;90.20;;;;;;5093267;28;20200;-91
2021/06/19 03:28:42;;;;;;;12.02;9.23;;;19.90;90.20;;;;;;5085027;28;20220;-91
2021/06/19 03:31:08;;;;;;;10.77;9.27;;;19.90;90.30;;;;;;5091123;28;20706;-91
2021/06/19 03:33:36;;;;;;;11.75;9.63;;;19.90;90.40;;;;;;5090063;28;20224;-91
2021/06/19 03:36:03;;;;;;;11.55;9.65;;;19.90;90.50;;;;;;5094859;28;20192;-91
2021/06/19 03:38:30;;;;;;;11.32;10.07;;;19.90;90.40;;;;;;5094096;28;20228;-91
2021/06/19 03:40:59;;;;;;;10.20;9.13;;;19.90;90.40;;;;;;5095624;28;20209;-91
2021/06/19 03:43:26;;;;;;;10.50;9.60;;;20.00;90.50;;;;;;5096366;28;20235;-91
2021/06/19 03:45:53;;;;;;;12.27;9.88;;;20.00;90.50;;;;;;5077830;28;20201;-91
2021/06/19 03:48:20;;;;;;;9.70;8.90;;;19.90;90.60;;;;;;5094017;28;20679;-91
2021/06/19 03:50:47;;;;;;;10.45;9.35;;;20.00;90.60;;;;;;5095636;28;20231;-91
2021/06/19 03:53:14;;;;;;;10.40;9.48;;;20.10;90.50;;;;;;5091543;28;20243;-91
2021/06/19 03:55:42;;;;;;;10.07;9.07;;;20.20;90.30;;;;;;5095446;28;20211;-91
2021/06/19 04:00:52;;;;;;;10.90;9.70;;;20.30;89.90;;;;;;5090828;28;20735;-90
2021/06/19 04:03:19;;;;;;;10.93;9.93;;;20.30;90.00;;;;;;5090298;28;20232;-91
2021/06/19 04:05:46;;;;;;;10.75;9.48;;;20.30;89.90;;;;;;5091111;28;20512;-91
2021/06/19 04:08:13;;;;;;;11.30;10.18;;;20.40;89.60;;;;;;5088050;28;20243;-91
2021/06/19 04:10:50;;;;;;;12.20;9.68;;;20.40;89.50;;;;;;5092637;28;20239;-91
2021/06/19 04:13:18;;;;;;;10.57;9.57;;;20.40;89.70;;;;;;5092046;28;20590;-91
2021/06/19 04:15:46;;;;;;;12.73;9.90;;;20.40;89.70;;;;;;5095307;28;20682;-91
2021/06/19 04:18:13;;;;;;;10.77;9.80;;;20.50;89.50;;;;;;5095149;28;20226;-91
2021/06/19 04:20:40;;;;;;;11.48;9.60;;;20.60;89.00;;;;;;5095691;28;20201;-91
2021/06/19 04:23:07;;;;;;;11.10;9.27;;;20.60;88.70;;;;;;5098112;28;20695;-89
2021/06/19 04:25:36;;;;;;;10.57;9.57;;;20.70;88.40;;;;;;5083915;28;20204;-89
2021/06/19 04:28:03;;;;;;;12.77;9.20;;;20.80;87.80;;;;;;5097965;28;20319;-89
2021/06/19 04:30:32;;;;;;;9.55;8.63;;;20.90;87.50;;;;;;5100073;28;20744;-90
2021/06/19 04:32:59;;;;;;;10.95;9.57;;;21.00;87.20;;;;;;5089600;28;20287;-89
2021/06/19 04:35:28;;;;;;;12.48;9.15;;;21.10;85.70;;;;;;5093519;28;20858;-91
2021/06/19 04:37:56;;;;;;;11.85;9.38;;;21.10;84.80;;;;;;5090772;28;20959;-91
2021/06/19 04:40:30;;;;;;;12.90;9.10;;;21.20;84.50;;;;;;5089318;28;20211;-91
2021/06/19 04:45:47;;;;;;;15.02;8.80;;;21.40;81.90;;;;;;5088347;28;20208;-90
2021/06/19 04:48:15;;;;;;;10.13;8.75;;;21.50;81.90;;;;;;5084855;28;20689;-91
2021/06/19 04:50:42;;;;;;;12.38;8.98;;;21.60;82.00;;;;;;5088913;28;20220;-92
2021/06/19 04:53:13;;;;;;;11.02;9.07;;;21.70;82.00;;;;;;5089822;28;20225;-90
2021/06/19 04:55:40;;;;;;;9.25;8.32;;;21.70;81.20;;;;;;5089391;28;20196;-91
2021/06/19 04:58:09;;;;;;;10.73;7.72;;;21.90;80.40;;;;;;5089035;28;20282;-91
2021/06/19 05:00:36;;;;;;;11.27;8.60;;;22.00;79.70;;;;;;5087419;28;20201;-90
2021/06/19 05:03:06;;;;;;;13.02;8.10;;;22.10;79.00;;;;;;5065939;28;20239;-91
2021/06/19 05:05:34;;;;;;;12.43;8.73;;;22.10;78.70;;;;;;5090614;28;20258;-90
2021/06/19 05:08:01;;;;;;;8.85;7.82;;;22.20;78.10;;;;;;5088810;28;20224;-90
2021/06/19 05:10:29;;;;;;;12.07;8.20;;;22.20;78.10;;;;;;5083586;28;20216;-91
2021/06/19 05:12:56;;;;;;;9.45;8.07;;;22.20;77.60;;;;;;5093241;28;20223;-91
2021/06/19 05:15:25;;;;;;;10.32;7.55;;;22.30;77.30;;;;;;5087462;28;20204;-90
2021/06/19 05:17:53;;;;;;;9.48;7.45;;;22.40;76.80;;;;;;5089097;28;20690;-91
2021/06/19 05:20:22;;;;;;;11.25;7.60;;;22.50;76.40;;;;;;5086031;28;20192;-91
2021/06/19 05:22:50;;;;;;;8.65;7.63;;;22.60;75.40;;;;;;5088275;28;20600;-91
2021/06/19 05:25:17;;;;;;;7.93;7.13;;;22.80;74.70;;;;;;5084838;28;20197;-91
2021/06/19 05:27:45;;;;;;;9.15;7.38;;;22.90;72.70;;;;;;5087174;28;20216;-91
2021/06/19 05:30:13;;;;;;;11.63;7.70;;;23.00;73.60;;;;;;5069465;28;20610;-90
2021/06/19 05:32:40;;;;;;;9.10;7.75;;;23.20;71.50;;;;;;5085948;28;20239;-91
2021/06/19 05:35:08;;;;;;;12.95;7.38;;;23.40;70.00;;;;;;5083362;28;20208;-91
2021/06/19 05:37:38;;;;;;;13.88;7.97;;;23.50;66.40;;;;;;5089892;28;20229;-90
2021/06/19 05:40:07;;;;;;;11.32;7.40;;;23.60;66.50;;;;;;5091928;28;20228;-88
2021/06/19 05:42:34;;;;;;;12.02;7.80;;;23.60;64.90;;;;;;5086283;28;20711;-91
2021/06/19 05:45:01;;;;;;;8.77;6.90;;;23.60;63.60;;;;;;5094338;28;20311;-91
2021/06/19 05:47:28;;;;;;;11.98;7.78;;;23.60;64.30;;;;;;5092713;28;20289;-91
2021/06/19 05:49:58;;;;;;;14.63;7.68;;;23.50;64.80;;;;;;5087515;28;20196;-91
2021/06/19 05:52:25;;;;;;;9.52;7.30;;;23.50;65.30;;;;;;5090076;28;20375;-91
2021/06/19 05:54:56;;;;;;;13.48;7.35;;;23.40;65.00;;;;;;5091800;28;20767;-91
2021/06/19 05:57:24;;;;;;;14.95;7.85;;;23.30;66.30;;;;;;5082417;28;20233;-91
2021/06/19 05:59:51;;;;;;;11.63;7.15;;;23.30;67.50;;;;;;5087235;28;20674;-91
2021/06/19 06:02:19;;;;;;;19.60;7.80;;;23.20;67.40;;;;;;5085704;28;20232;-90
2021/06/19 06:04:46;;;;;;;11.10;7.80;;;23.20;68.00;;;;;;5087098;28;20204;-91
2021/06/19 06:07:13;;;;;;;10.75;7.53;;;23.20;68.30;;;;;;5089054;28;20655;-91
2021/06/19 06:09:40;;;;;;;12.73;8.13;;;23.20;67.20;;;;;;5086898;28;20207;-91
2021/06/19 06:14:52;;;;;;;13.38;7.18;;;23.20;67.60;;;;;;5088648;28;20203;-91
2021/06/19 06:17:19;;;;;;;9.65;6.95;;;23.30;69.60;;;;;;5088305;28;20235;-91
2021/06/19 06:19:46;;;;;;;10.55;7.72;;;23.40;68.40;;;;;;5086862;28;20221;-91
2021/06/19 06:22:13;;;;;;;8.90;8.00;;;23.60;68.00;;;;;;5088955;28;20257;-91
2021/06/19 06:24:40;;;;;;;12.70;7.90;;;23.70;69.00;;;;;;5089292;28;20261;-91
2021/06/19 06:27:10;;;;;;;10.68;7.25;;;23.90;65.70;;;;;;5090882;28;20220;-91
2021/06/19 06:29:41;;;;;;;10.13;7.35;;;24.10;65.50;;;;;;5093305;28;20294;-91
2021/06/19 06:32:10;;;;;;;10.45;7.80;;;24.30;62.90;;;;;;5086429;28;20691;-91
2021/06/19 06:34:37;;;;;;;13.57;7.60;;;24.40;60.00;;;;;;5090915;28;20198;-91
2021/06/19 06:37:05;;;;;;;11.63;7.22;;;24.50;61.30;;;;;;5090276;28;20687;-91
2021/06/19 06:39:33;;;;;;;9.40;6.63;;;24.60;60.10;;;;;;5091720;28;20203;-91
2021/06/19 06:42:01;;;;;;;10.25;6.47;;;24.70;57.90;;;;;;5090345;28;20220;-91
2021/06/19 06:47:13;;;;;;;10.50;6.93;;;25.00;54.40;;;;;;5083283;28;20243;-91
2021/06/19 06:49:40;;;;;;;13.27;7.18;;;25.00;54.00;;;;;;5083949;28;20208;-90
2021/06/19 06:52:08;;;;;;;9.30;6.30;;;25.20;53.60;;;;;;5089913;28;20232;-91
2021/06/19 06:54:38;;;;;;;9.60;6.60;;;25.20;54.70;;;;;;5084557;28;20216;-89
2021/06/19 06:57:07;;;;;;;13.93;7.20;;;25.30;53.00;;;;;;5088417;28;20228;-91
2021/06/19 06:59:36;;;;;;;14.70;7.05;;;25.20;53.80;;;;;;5084591;28;20200;-89
2021/06/19 07:02:03;;;;;;;12.15;7.43;;;25.30;52.90;;;;;;5084505;28;20223;-87
2021/06/19 07:04:30;;;;;;;14.77;6.70;;;25.50;51.00;;;;;;5091246;28;20539;-84
2021/06/19 07:06:58;;;;;;;10.70;6.50;;;25.80;50.10;;;;;;5094031;28;20200;-84
2021/06/19 07:09:25;;;;;;;11.07;6.55;;;25.90;48.90;;;;;;5097501;28;20212;-84
2021/06/19 07:11:52;;;;;;;14.25;6.85;;;26.00;49.40;;;;;;5101248;28;20252;-84
2021/06/19 07:14:18;;;;;;;9.75;6.15;;;26.40;48.10;;;;;;5099573;28;20230;-87
2021/06/19 07:16:47;;;;;;;9.23;6.43;;;26.60;47.20;;;;;;5088487;28;20199;-90
2021/06/19 07:19:14;;;;;;;8.15;6.20;;;26.80;46.00;;;;;;5086465;28;20856;-90
2021/06/19 07:21:41;;;;;;;11.93;6.88;;;27.00;45.50;;;;;;5083673;28;20203;-91
2021/06/19 07:24:08;;;;;;;13.15;6.78;;;27.20;44.10;;;;;;5085405;28;20214;-91
2021/06/19 07:26:35;;;;;;;9.23;6.50;;;27.20;44.60;;;;;;5082166;28;20205;-90
2021/06/19 07:29:02;;;;;;;13.23;6.70;;;27.30;41.70;;;;;;5086086;28;20230;-88
2021/06/19 07:31:30;;;;;;;12.27;6.80;;;27.50;42.50;;;;;;5091870;28;20577;-89
2021/06/19 07:33:58;;;;;;;15.50;7.13;;;27.60;42.60;;;;;;5081696;28;20243;-87
2021/06/19 07:36:25;;;;;;;10.60;6.32;;;28.00;41.60;;;;;;5091138;28;20673;-88
2021/06/19 07:38:55;;;;;;;11.93;6.57;;;28.00;40.70;;;;;;5094428;28;20590;-94
2021/06/19 07:41:22;;;;;;;11.63;6.80;;;28.00;39.80;;;;;;5092974;28;20196;-89
2021/06/19 07:43:49;;;;;;;9.60;6.38;;;28.10;39.80;;;;;;5093392;28;20228;-86
2021/06/19 07:46:17;;;;;;;15.95;8.60;;;28.20;40.70;;;;;;5095786;28;20200;-87
2021/06/19 07:48:44;;;;;;;10.00;7.05;;;28.20;39.90;;;;;;5091315;28;20347;-88
2021/06/19 07:51:12;;;;;;;13.40;8.02;;;28.20;40.00;;;;;;5089088;28;20829;-87
2021/06/19 07:53:39;;;;;;;8.82;6.40;;;28.20;39.90;;;;;;5088278;28;20224;-87
2021/06/19 07:56:06;;;;;;;19.63;11.77;;;28.30;39.60;;;;;;5090715;28;20734;-87
2021/06/19 07:58:33;;;;;;;13.90;7.45;;;28.10;39.10;;;;;;5089770;28;20220;-87
2021/06/19 08:01:00;;;;;;;10.65;6.47;;;27.80;39.30;;;;;;5084130;28;20647;-90
2021/06/19 08:03:27;;;;;;;14.75;7.32;;;27.70;40.30;;;;;;5084356;28;20223;-90
2021/06/19 08:05:55;;;;;;;10.80;6.50;;;27.60;41.80;;;;;;5082822;28;20199;-90
2021/06/19 08:08:23;;;;;;;9.10;6.35;;;27.40;40.60;;;;;;5086763;28;20243;-91
2021/06/19 08:10:53;;;;;;;11.35;6.13;;;27.50;41.20;;;;;;5086544;28;20222;-90
2021/06/19 08:13:33;;;;;;;11.82;6.10;;;27.50;41.20;;;;;;5097658;28;20231;-91
2021/06/19 08:16:03;;;;;;;11.90;6.75;;;27.70;40.60;;;;;;5101086;28;20659;-92
2021/06/19 08:18:29;;;;;;;10.27;6.20;;;27.80;40.80;;;;;;5100228;28;20614;-92
2021/06/19 08:23:39;;;;;;;17.60;7.97;;;28.70;38.60;;;;;;5056119;28;20232;-92
2021/06/19 08:26:14;;;;;;;103.30;93.22;;;28.90;38.70;;;;;;5091832;28;20294;-92
2021/06/19 08:29:01;;;;;;;24.98;22.35;;;29.00;38.80;;;;;;5089356;28;20223;-91
2021/06/19 08:31:28;;;;;;;26.70;22.67;;;29.00;38.90;;;;;;5087422;28;20224;-91
2021/06/19 08:33:55;;;;;;;14.95;7.38;;;29.10;38.00;;;;;;5089628;28;20675;-90
2021/06/19 08:36:21;;;;;;;8.90;6.38;;;29.50;36.70;;;;;;5087641;28;20202;-90
2021/06/19 08:38:50;;;;;;;11.27;7.07;;;30.60;34.00;;;;;;5084874;28;20231;-92
2021/06/19 08:41:19;;;;;;;10.30;6.78;;;32.40;29.60;;;;;;5083406;28;20591;-91
2021/06/19 08:43:45;;;;;;;11.77;7.00;;;33.70;27.40;;;;;;5085218;28;20241;-91
2021/06/19 08:46:14;;;;;;;14.13;6.80;;;34.90;24.70;;;;;;5080279;28;20602;-91
2021/06/19 08:48:41;;;;;;;12.65;7.00;;;35.50;21.40;;;;;;5085821;28;20212;-91
2021/06/19 08:51:08;;;;;;;14.38;7.00;;;35.90;19.50;;;;;;5077215;28;20276;-92
2021/06/19 08:53:37;;;;;;;11.73;6.50;;;34.90;19.60;;;;;;5091973;28;20337;-91
2021/06/19 08:56:05;;;;;;;12.77;6.80;;;35.10;19.20;;;;;;5086026;28;20538;-91
2021/06/19 08:58:39;;;;;;;11.93;6.57;;;36.40;19.80;;;;;;5087852;28;20220;-93
2021/06/19 09:01:10;;;;;;;12.82;6.72;;;37.10;19.50;;;;;;5086668;28;20275;-91
2021/06/19 09:03:37;;;;;;;13.15;7.88;;;37.80;18.20;;;;;;5086333;28;20235;-86
2021/06/19 09:06:26;;;;;;;10.80;7.25;;;38.10;17.20;;;;;;5093777;28;20196;-86
2021/06/19 09:08:59;;;;;;;8.63;6.72;;;37.60;16.70;;;;;;5091614;28;20242;-88
2021/06/19 09:11:32;;;;;;;11.43;7.88;;;38.40;17.10;;;;;;5094459;28;20211;-87
2021/06/19 09:14:01;;;;;;;14.38;8.07;;;39.20;16.00;;;;;;5097179;28;20215;-86
2021/06/19 09:16:28;;;;;;;11.40;7.65;;;38.10;15.90;;;;;;5085286;28;20199;-87
2021/06/19 09:18:55;;;;;;;8.43;7.20;;;37.80;18.20;;;;;;5085498;28;20228;-89
2021/06/19 09:21:29;;;;;;;10.73;7.50;;;38.00;17.90;;;;;;5085004;28;20639;-88
2021/06/19 09:23:56;;;;;;;11.85;7.72;;;38.50;16.80;;;;;;5086382;28;20721;-87
2021/06/19 09:26:24;;;;;;;10.27;7.53;;;38.30;18.20;;;;;;5089257;28;20203;-85
2021/06/19 09:28:58;;;;;;;8.80;7.00;;;38.10;17.10;;;;;;5094922;28;20216;-85
2021/06/19 09:31:42;;;;;;;9.20;7.53;;;38.20;17.60;;;;;;5093234;28;20200;-85
2021/06/19 09:34:11;;;;;;;14.48;8.10;;;38.90;16.00;;;;;;5096038;28;20207;-87
2021/06/19 09:36:50;;;;;;;14.95;13.40;;;38.30;16.90;;;;;;5090697;28;20659;-87
2021/06/19 09:39:20;;;;;;;19.75;16.30;;;38.60;15.40;;;;;;5092989;28;20216;-87
2021/06/19 09:41:49;;;;;;;11.85;10.73;;;37.80;17.00;;;;;;5082681;28;20211;-87
2021/06/19 09:44:17;;;;;;;12.52;9.18;;;37.70;17.40;;;;;;5087533;28;20200;-87
2021/06/19 09:46:57;;;;;;;10.60;9.43;;;37.90;17.50;;;;;;5091922;28;20206;-87
2021/06/19 09:49:32;;;;;;;9.80;7.90;;;39.10;15.20;;;;;;5090959;28;20204;-87
2021/06/19 09:51:58;;;;;;;12.75;8.43;;;39.70;14.40;;;;;;5090793;28;20216;-87
2021/06/19 09:54:25;;;;;;;13.05;8.32;;;40.40;13.50;;;;;;5095347;28;20230;-87
2021/06/19 09:56:54;;;;;;;12.98;8.20;;;40.50;13.90;;;;;;5091721;28;20196;-87
2021/06/19 09:59:33;;;;;;;11.48;8.13;;;39.10;14.20;;;;;;5091663;28;20598;-87
2021/06/19 10:02:03;;;;;;;11.75;8.20;;;39.10;14.20;;;;;;5089492;28;20203;-88
2021/06/19 10:04:31;;;;;;;13.35;7.88;;;37.50;17.30;;;;;;5094620;28;20279;-88
2021/06/19 10:07:00;;;;;;;11.85;8.30;;;37.00;17.40;;;;;;5091814;28;20196;-87
2021/06/19 10:09:27;;;;;;;12.38;8.02;;;38.00;15.50;;;;;;5092329;28;20205;-87
2021/06/19 10:11:55;;;;;;;14.70;8.43;;;38.70;15.10;;;;;;5086176;28;20234;-87
2021/06/19 10:14:24;;;;;;;10.07;8.20;;;37.70;15.00;;;;;;5085943;28;20369;-86
2021/06/19 10:16:54;;;;;;;11.75;8.93;;;38.80;15.40;;;;;;5079298;28;20220;-87
2021/06/19 10:19:22;;;;;;;11.55;8.57;;;39.50;14.50;;;;;;5086397;28;20196;-87
2021/06/19 10:21:51;;;;;;;12.43;8.82;;;39.30;13.60;;;;;;5081834;28;20212;-86
2021/06/19 10:24:20;;;;;;;10.23;8.52;;;38.90;13.70;;;;;;5090451;28;20196;-87
2021/06/19 10:26:47;;;;;;;14.35;9.13;;;39.30;14.70;;;;;;5088382;28;20231;-87
2021/06/19 10:29:15;;;;;;;14.20;8.32;;;39.40;13.20;;;;;;5086095;28;20192;-86
2021/06/19 10:31:45;;;;;;;11.25;8.60;;;40.00;12.00;;;;;;5089639;28;20196;-86
2021/06/19 10:34:24;;;;;;;10.57;8.35;;;39.10;14.40;;;;;;5084644;28;20235;-86
2021/06/19 10:36:52;;;;;;;11.40;8.63;;;39.10;14.00;;;;;;5079780;28;20206;-86
2021/06/19 10:39:40;;;;;;;9.85;7.72;;;38.30;13.70;;;;;;5087809;28;20200;-86
2021/06/19 10:42:27;;;;;;;15.15;8.23;;;38.00;15.10;;;;;;5086963;28;20227;-86
2021/06/19 10:44:58;;;;;;;12.07;8.32;;;38.60;14.50;;;;;;5084724;28;20535;-86
2021/06/19 10:47:27;;;;;;;10.20;7.85;;;37.80;14.10;;;;;;5086732;28;20318;-86
2021/06/19 10:49:59;;;;;;;13.30;7.75;;;37.30;16.40;;;;;;5088384;28;20690;-86
2021/06/19 10:52:29;;;;;;;30.27;27.40;;;37.40;15.90;;;;;;5087794;28;20683;-86
2021/06/19 10:55:18;;;;;;;10.07;8.15;;;37.10;16.40;;;;;;5089735;28;20334;-87
2021/06/19 10:57:47;;;;;;;10.82;7.50;;;37.60;18.50;;;;;;5080918;28;20227;-86
2021/06/19 11:00:31;;;;;;;11.52;7.75;;;37.60;18.00;;;;;;5088758;28;20208;-86
2021/06/19 11:03:00;;;;;;;7.63;6.82;;;37.30;16.60;;;;;;5091343;28;20215;-87
2021/06/19 11:06:09;;;;;;;10.43;7.45;;;36.80;16.30;;;;;;5085396;28;20278;-87
2021/06/19 11:09:13;;;;;;;10.48;7.70;;;36.50;17.60;;;;;;5084237;28;20219;-86
2021/06/19 11:11:51;;;;;;;9.75;7.85;;;36.10;19.60;;;;;;5083634;28;20693;-86
2021/06/19 11:15:08;;;;;;;15.57;7.72;;;35.30;19.20;;;;;;5084475;28;20200;-86
2021/06/19 11:17:47;;;;;;;10.23;6.68;;;34.30;21.50;;;;;;5085008;28;20742;-86
2021/06/19 11:20:31;;;;;;;10.00;7.38;;;34.00;21.50;;;;;;5082692;28;20291;-86
2021/06/19 11:23:02;;;;;;;10.95;7.85;;;33.70;22.90;;;;;;5082699;28;20231;-86
2021/06/19 11:25:44;;;;;;;11.70;7.20;;;33.50;23.30;;;;;;5084964;28;20199;-86
2021/06/19 11:28:12;;;;;;;16.38;7.43;;;33.30;23.60;;;;;;5084694;28;20216;-86
2021/06/19 11:30:53;;;;;;;13.98;10.02;;;33.20;22.90;;;;;;5086339;28;20576;-87
2021/06/19 11:33:39;;;;;;;11.05;8.25;;;33.20;21.20;;;;;;5090490;28;20223;-84
2021/06/19 11:36:35;;;;;;;12.13;6.97;;;33.20;23.60;;;;;;5093876;28;20648;-84
2021/06/19 11:39:08;;;;;;;15.88;6.80;;;33.20;22.00;;;;;;5094932;28;20287;-85
2021/06/19 11:41:41;;;;;;;10.65;7.00;;;33.20;22.60;;;;;;5088385;28;20673;-85
2021/06/19 11:44:20;;;;;;;10.85;6.65;;;33.40;21.90;;;;;;5094923;28;20215;-84
2021/06/19 11:46:49;;;;;;;11.85;7.75;;;33.40;21.90;;;;;;5084970;28;20542;-87
2021/06/19 11:49:17;;;;;;;13.80;7.40;;;33.10;22.50;;;;;;5090639;28;20219;-85
2021/06/19 11:51:48;;;;;;;12.23;7.05;;;33.00;24.50;;;;;;5086710;28;20278;-84
2021/06/19 11:54:16;;;;;;;13.63;8.38;;;33.00;23.40;;;;;;5095854;28;20228;-86
2021/06/19 11:56:45;;;;;;;15.85;9.60;;;33.20;21.20;;;;;;5098338;28;20648;-88
2021/06/19 11:59:14;;;;;;;13.38;7.15;;;33.20;21.20;;;;;;5098407;28;20283;-85
2021/06/19 12:01:42;;;;;;;17.85;7.25;;;33.30;24.90;;;;;;5093934;28;20192;-86
2021/06/19 12:04:12;;;;;;;10.15;6.40;;;33.60;24.70;;;;;;5095666;28;20203;-87
2021/06/19 12:06:41;;;;;;;10.00;7.53;;;33.80;23.10;;;;;;5093402;28;20189;-85
2021/06/19 12:09:16;;;;;;;10.13;7.32;;;33.80;21.00;;;;;;5096593;28;20231;-88
2021/06/19 12:14:28;;;;;;;11.88;7.65;;;33.00;22.60;;;;;;5096882;28;20726;-87
2021/06/19 12:16:59;;;;;;;12.75;7.32;;;32.90;23.70;;;;;;5093423;28;20200;-87
2021/06/19 12:19:27;;;;;;;10.27;7.80;;;32.30;28.10;;;;;;5097190;28;20672;-82
2021/06/19 12:21:58;;;;;;;9.75;7.55;;;32.50;26.00;;;;;;5092769;28;20227;-86
2021/06/19 12:24:28;;;;;;;10.27;7.25;;;32.60;25.30;;;;;;5100861;28;20268;-87
2021/06/19 12:27:03;;;;;;;8.38;7.40;;;32.50;25.10;;;;;;5090103;28;20200;-89
2021/06/19 12:29:31;;;;;;;17.92;7.90;;;32.60;25.10;;;;;;5088461;28;20642;-89
2021/06/19 12:31:59;;;;;;;16.95;8.10;;;32.60;23.20;;;;;;5087842;28;20563;-88
2021/06/19 12:34:28;;;;;;;12.63;7.63;;;32.70;25.00;;;;;;5094501;28;20215;-85
2021/06/19 12:36:56;;;;;;;12.30;8.05;;;32.70;25.30;;;;;;5093759;28;20245;-86
2021/06/19 12:39:23;;;;;;;12.25;7.70;;;32.60;25.80;;;;;;5092794;28;20204;-86
2021/06/19 12:41:50;;;;;;;10.48;7.93;;;32.50;24.20;;;;;;5090162;28;20210;-85
2021/06/19 12:44:18;;;;;;;13.35;7.55;;;32.30;25.90;;;;;;5090547;28;20200;-86
2021/06/19 12:46:46;;;;;;;12.77;7.85;;;32.10;24.80;;;;;;5089631;28;20773;-85
2021/06/19 12:49:13;;;;;;;10.20;7.22;;;31.50;26.50;;;;;;5090527;28;20219;-86
2021/06/19 12:51:40;;;;;;;10.13;7.25;;;31.00;28.30;;;;;;5092618;28;20277;-85
2021/06/19 12:54:18;;;;;;;8.02;7.13;;;31.30;28.40;;;;;;5093849;28;20228;-85
2021/06/19 12:56:51;;;;;;;11.48;7.63;;;31.70;27.80;;;;;;5097745;28;20214;-85
2021/06/19 12:59:19;;;;;;;8.23;6.85;;;31.80;26.40;;;;;;5094237;28;20725;-85
2021/06/19 13:02:01;;;;;;;10.10;7.90;;;32.10;24.10;;;;;;5085258;28;20792;-85
2021/06/19 13:04:30;;;;;;;9.70;6.75;;;32.10;26.10;;;;;;5088264;28;20204;-85
2021/06/19 13:07:07;;;;;;;9.68;6.50;;;31.50;25.40;;;;;;5087165;28;20295;-85
2021/06/19 13:09:49;;;;;;;11.13;7.28;;;31.80;24.40;;;;;;5087338;28;20209;-87